sensor_id;sensor_type;location;lat;lon;timestamp;P1;durP1;ratioP1;P2;durP2;ratioP2
5460;SDS011;2753;49.196;8.286;2023-03-01T00:01:52;18.17;;;9.40;;
5460;SDS011;2753;49.196;8.286;2023-03-01T00:04:18;19.20;;;8.97;;
5460;SDS011;2753;49.196;8.286;2023-03-01T00:06:43;18.10;;;9.40;;
5460;SDS011;2753;49.196;8.286;2023-03-01T00:09:13;17.80;;;9.30;;
5460;SDS011;2753;49.196;8.286;2023-03-01T00:11:39;18.63;;;9.40;;
5460;SDS011;2753;49.196;8.286;2023-03-01T00:14:05;16.97;;;8.60;;
5460;SDS011;2753;49.196;8.286;2023-03-01T00:16:36;17.47;;;10.40;;
5460;SDS011;2753;49.196;8.286;2023-03-01T00:19:04;18.23;;;10.13;;
5460;SDS011;2753;49.196;8.286;2023-03-01T00:21:31;16.07;;;9.07;;
5460;SDS011;2753;49.196;8.286;2023-03-01T00:23:57;11.90;;;8.03;;
5460;SDS011;2753;49.196;8.286;2023-03-01T00:26:24;15.23;;;9.20;;
5460;SDS011;2753;49.196;8.286;2023-03-01T00:28:51;15.53;;;8.77;;
5460;SDS011;2753;49.196;8.286;2023-03-01T00:31:18;16.67;;;9.67;;
5460;SDS011;2753;49.196;8.286;2023-03-01T00:33:46;18.70;;;9.03;;
5460;SDS011;2753;49.196;8.286;2023-03-01T00:36:12;19.43;;;9.57;;
5460;SDS011;2753;49.196;8.286;2023-03-01T00:38:40;20.70;;;9.87;;
5460;SDS011;2753;49.196;8.286;2023-03-01T00:41:09;15.83;;;9.00;;
5460;SDS011;2753;49.196;8.286;2023-03-01T00:43:36;20.07;;;10.20;;
5460;SDS011;2753;49.196;8.286;2023-03-01T00:46:07;14.10;;;9.13;;
5460;SDS011;2753;49.196;8.286;2023-03-01T00:48:35;16.65;;;10.73;;
5460;SDS011;2753;49.196;8.286;2023-03-01T00:51:05;17.73;;;10.00;;
5460;SDS011;2753;49.196;8.286;2023-03-01T00:53:32;16.97;;;9.50;;
5460;SDS011;2753;49.196;8.286;2023-03-01T00:55:58;17.63;;;9.80;;
5460;SDS011;2753;49.196;8.286;2023-03-01T00:58:24;21.23;;;10.07;;
5460;SDS011;2753;49.196;8.286;2023-03-01T01:00:50;16.10;;;8.63;;
5460;SDS011;2753;49.196;8.286;2023-03-01T01:03:17;14.90;;;8.47;;
5460;SDS011;2753;49.196;8.286;2023-03-01T01:05:43;16.50;;;9.00;;
5460;SDS011;2753;49.196;8.286;2023-03-01T01:08:09;15.63;;;9.03;;
5460;SDS011;2753;49.196;8.286;2023-03-01T01:10:34;15.27;;;9.40;;
5460;SDS011;2753;49.196;8.286;2023-03-01T01:13:00;20.83;;;10.10;;
5460;SDS011;2753;49.196;8.286;2023-03-01T01:15:26;23.70;;;10.33;;
5460;SDS011;2753;49.196;8.286;2023-03-01T01:17:52;18.07;;;8.90;;
5460;SDS011;2753;49.196;8.286;2023-03-01T01:20:17;15.47;;;8.47;;
5460;SDS011;2753;49.196;8.286;2023-03-01T01:22:43;22.63;;;9.80;;
5460;SDS011;2753;49.196;8.286;2023-03-01T01:25:09;18.07;;;9.57;;
5460;SDS011;2753;49.196;8.286;2023-03-01T01:27:35;14.30;;;8.80;;
5460;SDS011;2753;49.196;8.286;2023-03-01T01:30:01;17.60;;;8.93;;
5460;SDS011;2753;49.196;8.286;2023-03-01T01:32:28;14.17;;;9.00;;
5460;SDS011;2753;49.196;8.286;2023-03-01T01:34:54;15.40;;;8.50;;
5460;SDS011;2753;49.196;8.286;2023-03-01T01:37:19;19.30;;;8.87;;
5460;SDS011;2753;49.196;8.286;2023-03-01T01:39:45;17.63;;;9.73;;
5460;SDS011;2753;49.196;8.286;2023-03-01T01:42:14;20.37;;;9.57;;
5460;SDS011;2753;49.196;8.286;2023-03-01T01:45:29;17.93;;;9.40;;
5460;SDS011;2753;49.196;8.286;2023-03-01T01:47:54;18.47;;;9.77;;
5460;SDS011;2753;49.196;8.286;2023-03-01T01:50:23;18.73;;;9.90;;
5460;SDS011;2753;49.196;8.286;2023-03-01T01:52:50;13.83;;;9.33;;
5460;SDS011;2753;49.196;8.286;2023-03-01T01:55:18;16.83;;;8.90;;
5460;SDS011;2753;49.196;8.286;2023-03-01T01:57:51;15.83;;;8.83;;
5460;SDS011;2753;49.196;8.286;2023-03-01T02:00:24;21.87;;;9.47;;
5460;SDS011;2753;49.196;8.286;2023-03-01T02:03:11;18.00;;;8.67;;
5460;SDS011;2753;49.196;8.286;2023-03-01T02:08:20;16.87;;;10.10;;
5460;SDS011;2753;49.196;8.286;2023-03-01T02:10:48;18.80;;;9.10;;
5460;SDS011;2753;49.196;8.286;2023-03-01T02:13:15;15.43;;;9.77;;
5460;SDS011;2753;49.196;8.286;2023-03-01T02:15:41;22.30;;;11.23;;
5460;SDS011;2753;49.196;8.286;2023-03-01T02:18:12;19.30;;;9.47;;
5460;SDS011;2753;49.196;8.286;2023-03-01T02:20:44;18.07;;;9.13;;
5460;SDS011;2753;49.196;8.286;2023-03-01T02:23:14;18.00;;;9.00;;
5460;SDS011;2753;49.196;8.286;2023-03-01T02:28:35;18.47;;;9.73;;
5460;SDS011;2753;49.196;8.286;2023-03-01T02:31:03;17.20;;;9.73;;
5460;SDS011;2753;49.196;8.286;2023-03-01T02:33:49;22.00;;;10.17;;
5460;SDS011;2753;49.196;8.286;2023-03-01T02:36:20;15.10;;;8.57;;
5460;SDS011;2753;49.196;8.286;2023-03-01T02:38:49;18.97;;;9.37;;
5460;SDS011;2753;49.196;8.286;2023-03-01T02:41:19;14.07;;;10.33;;
5460;SDS011;2753;49.196;8.286;2023-03-01T02:43:46;17.27;;;9.27;;
5460;SDS011;2753;49.196;8.286;2023-03-01T02:46:19;18.07;;;10.30;;
5460;SDS011;2753;49.196;8.286;2023-03-01T02:48:56;14.90;;;9.00;;
5460;SDS011;2753;49.196;8.286;2023-03-01T02:54:39;19.00;;;10.10;;
5460;SDS011;2753;49.196;8.286;2023-03-01T02:57:08;16.33;;;9.37;;
5460;SDS011;2753;49.196;8.286;2023-03-01T02:59:34;18.60;;;8.40;;
5460;SDS011;2753;49.196;8.286;2023-03-01T03:02:04;15.50;;;10.00;;
5460;SDS011;2753;49.196;8.286;2023-03-01T03:04:31;22.30;;;10.03;;
5460;SDS011;2753;49.196;8.286;2023-03-01T03:06:57;18.80;;;11.13;;
5460;SDS011;2753;49.196;8.286;2023-03-01T03:09:22;14.50;;;8.83;;
5460;SDS011;2753;49.196;8.286;2023-03-01T03:11:48;17.40;;;10.50;;
5460;SDS011;2753;49.196;8.286;2023-03-01T03:14:15;19.00;;;10.90;;
5460;SDS011;2753;49.196;8.286;2023-03-01T03:16:42;19.00;;;11.30;;
5460;SDS011;2753;49.196;8.286;2023-03-01T03:19:10;18.30;;;10.87;;
5460;SDS011;2753;49.196;8.286;2023-03-01T03:21:36;15.57;;;10.70;;
5460;SDS011;2753;49.196;8.286;2023-03-01T03:24:02;17.10;;;10.87;;
5460;SDS011;2753;49.196;8.286;2023-03-01T03:26:28;15.67;;;9.67;;
5460;SDS011;2753;49.196;8.286;2023-03-01T03:28:54;16.23;;;10.10;;
5460;SDS011;2753;49.196;8.286;2023-03-01T03:31:20;17.90;;;10.30;;
5460;SDS011;2753;49.196;8.286;2023-03-01T03:33:46;19.63;;;10.53;;
5460;SDS011;2753;49.196;8.286;2023-03-01T03:36:18;16.90;;;10.50;;
5460;SDS011;2753;49.196;8.286;2023-03-01T03:38:46;17.70;;;10.33;;
5460;SDS011;2753;49.196;8.286;2023-03-01T03:41:12;20.63;;;11.07;;
5460;SDS011;2753;49.196;8.286;2023-03-01T03:43:38;17.27;;;10.40;;
5460;SDS011;2753;49.196;8.286;2023-03-01T03:46:05;21.00;;;9.80;;
5460;SDS011;2753;49.196;8.286;2023-03-01T03:48:36;22.70;;;11.80;;
5460;SDS011;2753;49.196;8.286;2023-03-01T03:51:07;20.50;;;11.43;;
5460;SDS011;2753;49.196;8.286;2023-03-01T03:53:35;20.73;;;10.50;;
5460;SDS011;2753;49.196;8.286;2023-03-01T03:56:01;19.27;;;10.40;;
5460;SDS011;2753;49.196;8.286;2023-03-01T03:58:26;29.90;;;11.67;;
5460;SDS011;2753;49.196;8.286;2023-03-01T04:00:53;17.27;;;10.23;;
5460;SDS011;2753;49.196;8.286;2023-03-01T04:03:23;22.03;;;11.27;;
5460;SDS011;2753;49.196;8.286;2023-03-01T04:05:51;21.83;;;11.87;;
5460;SDS011;2753;49.196;8.286;2023-03-01T04:08:18;21.57;;;11.20;;
5460;SDS011;2753;49.196;8.286;2023-03-01T04:10:46;25.87;;;10.73;;
5460;SDS011;2753;49.196;8.286;2023-03-01T04:13:20;19.07;;;10.87;;
5460;SDS011;2753;49.196;8.286;2023-03-01T04:15:50;29.30;;;13.13;;
5460;SDS011;2753;49.196;8.286;2023-03-01T04:18:18;21.00;;;9.97;;
5460;SDS011;2753;49.196;8.286;2023-03-01T04:20:45;20.17;;;12.03;;
5460;SDS011;2753;49.196;8.286;2023-03-01T04:23:15;24.57;;;12.10;;
5460;SDS011;2753;49.196;8.286;2023-03-01T04:25:55;28.23;;;11.80;;
5460;SDS011;2753;49.196;8.286;2023-03-01T04:28:26;25.33;;;12.10;;
5460;SDS011;2753;49.196;8.286;2023-03-01T04:30:54;25.37;;;11.80;;
5460;SDS011;2753;49.196;8.286;2023-03-01T04:33:21;38.80;;;12.60;;
5460;SDS011;2753;49.196;8.286;2023-03-01T04:35:48;29.53;;;11.43;;
5460;SDS011;2753;49.196;8.286;2023-03-01T04:38:17;25.70;;;13.30;;
5460;SDS011;2753;49.196;8.286;2023-03-01T04:40:44;25.40;;;12.73;;
5460;SDS011;2753;49.196;8.286;2023-03-01T04:43:10;18.67;;;10.97;;
5460;SDS011;2753;49.196;8.286;2023-03-01T04:45:38;19.73;;;11.50;;
5460;SDS011;2753;49.196;8.286;2023-03-01T04:48:04;21.60;;;12.17;;
5460;SDS011;2753;49.196;8.286;2023-03-01T04:50:30;18.27;;;11.43;;
5460;SDS011;2753;49.196;8.286;2023-03-01T04:52:56;24.50;;;11.17;;
5460;SDS011;2753;49.196;8.286;2023-03-01T04:55:25;21.43;;;11.60;;
5460;SDS011;2753;49.196;8.286;2023-03-01T04:57:52;21.90;;;11.70;;
5460;SDS011;2753;49.196;8.286;2023-03-01T05:00:19;25.90;;;11.30;;
5460;SDS011;2753;49.196;8.286;2023-03-01T05:03:06;22.20;;;11.50;;
5460;SDS011;2753;49.196;8.286;2023-03-01T05:05:34;22.93;;;12.40;;
5460;SDS011;2753;49.196;8.286;2023-03-01T05:08:04;26.27;;;12.00;;
5460;SDS011;2753;49.196;8.286;2023-03-01T05:10:31;28.13;;;13.47;;
5460;SDS011;2753;49.196;8.286;2023-03-01T05:13:00;24.07;;;12.47;;
5460;SDS011;2753;49.196;8.286;2023-03-01T05:15:26;27.93;;;11.90;;
5460;SDS011;2753;49.196;8.286;2023-03-01T05:17:54;23.00;;;12.40;;
5460;SDS011;2753;49.196;8.286;2023-03-01T05:20:23;30.53;;;13.07;;
5460;SDS011;2753;49.196;8.286;2023-03-01T05:22:49;21.67;;;11.77;;
5460;SDS011;2753;49.196;8.286;2023-03-01T05:25:15;22.30;;;12.70;;
5460;SDS011;2753;49.196;8.286;2023-03-01T05:27:41;25.77;;;12.40;;
5460;SDS011;2753;49.196;8.286;2023-03-01T05:30:08;20.30;;;10.93;;
5460;SDS011;2753;49.196;8.286;2023-03-01T05:32:41;29.57;;;13.90;;
5460;SDS011;2753;49.196;8.286;2023-03-01T05:35:08;30.30;;;14.10;;
5460;SDS011;2753;49.196;8.286;2023-03-01T05:37:38;28.30;;;13.20;;
5460;SDS011;2753;49.196;8.286;2023-03-01T05:40:05;30.90;;;12.60;;
5460;SDS011;2753;49.196;8.286;2023-03-01T05:42:32;24.20;;;12.10;;
5460;SDS011;2753;49.196;8.286;2023-03-01T05:44:58;24.63;;;13.37;;
5460;SDS011;2753;49.196;8.286;2023-03-01T05:47:24;22.87;;;12.40;;
5460;SDS011;2753;49.196;8.286;2023-03-01T05:49:49;19.90;;;12.10;;
5460;SDS011;2753;49.196;8.286;2023-03-01T05:52:15;29.57;;;12.97;;
5460;SDS011;2753;49.196;8.286;2023-03-01T05:54:41;27.43;;;12.40;;
5460;SDS011;2753;49.196;8.286;2023-03-01T05:57:06;22.97;;;11.40;;
5460;SDS011;2753;49.196;8.286;2023-03-01T05:59:32;28.37;;;12.70;;
5460;SDS011;2753;49.196;8.286;2023-03-01T06:01:57;21.30;;;11.40;;
5460;SDS011;2753;49.196;8.286;2023-03-01T06:04:23;21.23;;;11.23;;
5460;SDS011;2753;49.196;8.286;2023-03-01T06:06:48;21.27;;;12.20;;
5460;SDS011;2753;49.196;8.286;2023-03-01T06:09:14;25.03;;;12.40;;
5460;SDS011;2753;49.196;8.286;2023-03-01T06:11:40;23.60;;;12.00;;
5460;SDS011;2753;49.196;8.286;2023-03-01T06:14:07;25.20;;;12.40;;
5460;SDS011;2753;49.196;8.286;2023-03-01T06:16:33;30.87;;;13.47;;
5460;SDS011;2753;49.196;8.286;2023-03-01T06:18:59;25.57;;;11.83;;
5460;SDS011;2753;49.196;8.286;2023-03-01T06:21:24;25.07;;;13.27;;
5460;SDS011;2753;49.196;8.286;2023-03-01T06:23:50;26.17;;;12.20;;
5460;SDS011;2753;49.196;8.286;2023-03-01T06:26:16;25.27;;;14.20;;
5460;SDS011;2753;49.196;8.286;2023-03-01T06:28:42;29.47;;;13.10;;
5460;SDS011;2753;49.196;8.286;2023-03-01T06:31:10;26.67;;;13.80;;
5460;SDS011;2753;49.196;8.286;2023-03-01T06:33:36;29.20;;;13.27;;
5460;SDS011;2753;49.196;8.286;2023-03-01T06:36:03;25.00;;;11.93;;
5460;SDS011;2753;49.196;8.286;2023-03-01T06:38:29;27.33;;;13.20;;
5460;SDS011;2753;49.196;8.286;2023-03-01T06:40:54;30.93;;;13.77;;
5460;SDS011;2753;49.196;8.286;2023-03-01T06:43:21;25.00;;;12.20;;
5460;SDS011;2753;49.196;8.286;2023-03-01T06:45:48;27.97;;;13.07;;
5460;SDS011;2753;49.196;8.286;2023-03-01T06:48:14;21.67;;;12.37;;
5460;SDS011;2753;49.196;8.286;2023-03-01T06:50:40;27.20;;;13.53;;
5460;SDS011;2753;49.196;8.286;2023-03-01T06:53:05;37.13;;;13.20;;
5460;SDS011;2753;49.196;8.286;2023-03-01T06:55:31;25.10;;;12.93;;
5460;SDS011;2753;49.196;8.286;2023-03-01T06:57:58;26.00;;;12.70;;
5460;SDS011;2753;49.196;8.286;2023-03-01T07:00:25;36.17;;;14.00;;
5460;SDS011;2753;49.196;8.286;2023-03-01T07:02:51;24.03;;;13.50;;
5460;SDS011;2753;49.196;8.286;2023-03-01T07:05:17;23.93;;;12.87;;
5460;SDS011;2753;49.196;8.286;2023-03-01T07:07:43;27.10;;;13.97;;
5460;SDS011;2753;49.196;8.286;2023-03-01T07:10:09;30.80;;;13.30;;
5460;SDS011;2753;49.196;8.286;2023-03-01T07:12:35;30.07;;;14.50;;
5460;SDS011;2753;49.196;8.286;2023-03-01T07:15:01;25.87;;;14.10;;
5460;SDS011;2753;49.196;8.286;2023-03-01T07:17:26;24.07;;;12.80;;
5460;SDS011;2753;49.196;8.286;2023-03-01T07:19:52;27.30;;;13.50;;
5460;SDS011;2753;49.196;8.286;2023-03-01T07:22:18;33.90;;;14.53;;
5460;SDS011;2753;49.196;8.286;2023-03-01T07:24:43;30.10;;;14.80;;
5460;SDS011;2753;49.196;8.286;2023-03-01T07:27:09;27.00;;;12.47;;
5460;SDS011;2753;49.196;8.286;2023-03-01T07:29:35;35.20;;;15.97;;
5460;SDS011;2753;49.196;8.286;2023-03-01T07:32:02;39.43;;;16.40;;
5460;SDS011;2753;49.196;8.286;2023-03-01T07:34:28;28.70;;;14.40;;
5460;SDS011;2753;49.196;8.286;2023-03-01T07:36:54;34.37;;;16.97;;
5460;SDS011;2753;49.196;8.286;2023-03-01T07:39:20;31.30;;;15.53;;
5460;SDS011;2753;49.196;8.286;2023-03-01T07:41:48;43.30;;;16.80;;
5460;SDS011;2753;49.196;8.286;2023-03-01T07:44:14;33.23;;;15.23;;
5460;SDS011;2753;49.196;8.286;2023-03-01T07:46:41;30.20;;;15.43;;
5460;SDS011;2753;49.196;8.286;2023-03-01T07:49:07;33.57;;;15.43;;
5460;SDS011;2753;49.196;8.286;2023-03-01T07:51:32;28.80;;;15.20;;
5460;SDS011;2753;49.196;8.286;2023-03-01T07:53:58;33.70;;;16.57;;
5460;SDS011;2753;49.196;8.286;2023-03-01T07:56:24;30.23;;;15.50;;
5460;SDS011;2753;49.196;8.286;2023-03-01T07:58:49;30.40;;;16.43;;
5460;SDS011;2753;49.196;8.286;2023-03-01T08:01:16;32.83;;;15.97;;
5460;SDS011;2753;49.196;8.286;2023-03-01T08:03:44;33.37;;;16.77;;
5460;SDS011;2753;49.196;8.286;2023-03-01T08:06:11;33.00;;;17.70;;
5460;SDS011;2753;49.196;8.286;2023-03-01T08:08:38;30.13;;;15.80;;
5460;SDS011;2753;49.196;8.286;2023-03-01T08:11:04;29.63;;;15.10;;
5460;SDS011;2753;49.196;8.286;2023-03-01T08:13:31;29.63;;;15.60;;
5460;SDS011;2753;49.196;8.286;2023-03-01T08:16:01;28.77;;;15.20;;
5460;SDS011;2753;49.196;8.286;2023-03-01T08:18:27;27.17;;;14.03;;
5460;SDS011;2753;49.196;8.286;2023-03-01T08:20:53;34.23;;;13.93;;
5460;SDS011;2753;49.196;8.286;2023-03-01T08:23:19;31.60;;;13.07;;
5460;SDS011;2753;49.196;8.286;2023-03-01T08:25:44;30.67;;;15.70;;
5460;SDS011;2753;49.196;8.286;2023-03-01T08:28:10;31.43;;;15.30;;
5460;SDS011;2753;49.196;8.286;2023-03-01T08:30:35;35.07;;;14.30;;
5460;SDS011;2753;49.196;8.286;2023-03-01T08:33:01;27.73;;;14.73;;
5460;SDS011;2753;49.196;8.286;2023-03-01T08:35:27;30.67;;;13.53;;
5460;SDS011;2753;49.196;8.286;2023-03-01T08:37:52;32.80;;;17.63;;
5460;SDS011;2753;49.196;8.286;2023-03-01T08:40:18;30.80;;;15.80;;
5460;SDS011;2753;49.196;8.286;2023-03-01T08:42:44;41.43;;;17.77;;
5460;SDS011;2753;49.196;8.286;2023-03-01T08:45:10;28.67;;;14.50;;
5460;SDS011;2753;49.196;8.286;2023-03-01T08:47:36;31.63;;;16.47;;
5460;SDS011;2753;49.196;8.286;2023-03-01T08:50:02;33.17;;;17.80;;
5460;SDS011;2753;49.196;8.286;2023-03-01T08:52:28;31.53;;;16.10;;
5460;SDS011;2753;49.196;8.286;2023-03-01T08:54:55;30.43;;;14.60;;
5460;SDS011;2753;49.196;8.286;2023-03-01T08:57:21;35.43;;;14.87;;
5460;SDS011;2753;49.196;8.286;2023-03-01T08:59:47;38.03;;;16.10;;
5460;SDS011;2753;49.196;8.286;2023-03-01T09:02:14;26.63;;;14.93;;
5460;SDS011;2753;49.196;8.286;2023-03-01T09:04:42;33.67;;;14.27;;
5460;SDS011;2753;49.196;8.286;2023-03-01T09:07:09;37.27;;;15.67;;
5460;SDS011;2753;49.196;8.286;2023-03-01T09:09:35;31.57;;;15.17;;
5460;SDS011;2753;49.196;8.286;2023-03-01T09:12:03;31.30;;;14.90;;
5460;SDS011;2753;49.196;8.286;2023-03-01T09:14:29;27.23;;;13.93;;
5460;SDS011;2753;49.196;8.286;2023-03-01T09:16:54;28.70;;;12.80;;
5460;SDS011;2753;49.196;8.286;2023-03-01T09:19:20;31.50;;;13.33;;
5460;SDS011;2753;49.196;8.286;2023-03-01T09:21:46;40.23;;;15.50;;
5460;SDS011;2753;49.196;8.286;2023-03-01T09:24:18;34.63;;;16.53;;
5460;SDS011;2753;49.196;8.286;2023-03-01T09:26:46;27.20;;;13.63;;
5460;SDS011;2753;49.196;8.286;2023-03-01T09:29:12;30.30;;;15.90;;
5460;SDS011;2753;49.196;8.286;2023-03-01T09:31:39;30.90;;;16.87;;
5460;SDS011;2753;49.196;8.286;2023-03-01T09:34:05;31.50;;;16.03;;
5460;SDS011;2753;49.196;8.286;2023-03-01T09:36:32;27.80;;;12.80;;
5460;SDS011;2753;49.196;8.286;2023-03-01T09:38:58;28.90;;;13.63;;
5460;SDS011;2753;49.196;8.286;2023-03-01T09:47:18;31.20;;;14.97;;
5460;SDS011;2753;49.196;8.286;2023-03-01T10:00:43;33.10;;;16.03;;
5460;SDS011;2753;49.196;8.286;2023-03-01T10:03:26;32.60;;;16.93;;
5460;SDS011;2753;49.196;8.286;2023-03-01T10:06:01;32.23;;;16.20;;
5460;SDS011;2753;49.196;8.286;2023-03-01T10:08:53;32.93;;;16.07;;
5460;SDS011;2753;49.196;8.286;2023-03-01T10:11:26;30.70;;;14.90;;
5460;SDS011;2753;49.196;8.286;2023-03-01T10:14:01;31.23;;;14.67;;
5460;SDS011;2753;49.196;8.286;2023-03-01T10:19:28;29.87;;;16.23;;
5460;SDS011;2753;49.196;8.286;2023-03-01T10:22:41;40.80;;;15.97;;
5460;SDS011;2753;49.196;8.286;2023-03-01T10:24:53;31.63;;;15.43;;
5460;SDS011;2753;49.196;8.286;2023-03-01T10:27:34;32.10;;;16.37;;
5460;SDS011;2753;49.196;8.286;2023-03-01T10:30:13;31.73;;;15.23;;
5460;SDS011;2753;49.196;8.286;2023-03-01T10:32:45;29.43;;;14.50;;
5460;SDS011;2753;49.196;8.286;2023-03-01T10:35:18;33.27;;;17.50;;
5460;SDS011;2753;49.196;8.286;2023-03-01T10:38:07;28.60;;;14.97;;
5460;SDS011;2753;49.196;8.286;2023-03-01T10:40:36;29.80;;;16.00;;
5460;SDS011;2753;49.196;8.286;2023-03-01T10:43:14;31.63;;;16.30;;
5460;SDS011;2753;49.196;8.286;2023-03-01T10:45:40;27.27;;;14.27;;
5460;SDS011;2753;49.196;8.286;2023-03-01T10:50:34;29.03;;;15.40;;
5460;SDS011;2753;49.196;8.286;2023-03-01T10:53:03;35.37;;;14.93;;
5460;SDS011;2753;49.196;8.286;2023-03-01T10:55:39;37.43;;;17.60;;
5460;SDS011;2753;49.196;8.286;2023-03-01T10:58:11;36.93;;;15.70;;
5460;SDS011;2753;49.196;8.286;2023-03-01T11:00:55;25.63;;;14.03;;
5460;SDS011;2753;49.196;8.286;2023-03-01T11:03:23;26.17;;;14.50;;
5460;SDS011;2753;49.196;8.286;2023-03-01T11:16:22;26.37;;;16.17;;
5460;SDS011;2753;49.196;8.286;2023-03-01T11:19:04;30.10;;;13.57;;
5460;SDS011;2753;49.196;8.286;2023-03-01T11:24:26;27.53;;;14.90;;
5460;SDS011;2753;49.196;8.286;2023-03-01T11:26:59;27.87;;;14.80;;
5460;SDS011;2753;49.196;8.286;2023-03-01T11:29:35;24.93;;;13.63;;
5460;SDS011;2753;49.196;8.286;2023-03-01T11:32:05;23.37;;;13.50;;
5460;SDS011;2753;49.196;8.286;2023-03-01T11:34:57;29.50;;;16.10;;
5460;SDS011;2753;49.196;8.286;2023-03-01T11:40:29;32.13;;;15.63;;
5460;SDS011;2753;49.196;8.286;2023-03-01T11:56:48;25.30;;;9.93;;
5460;SDS011;2753;49.196;8.286;2023-03-01T11:59:24;21.73;;;14.37;;
5460;SDS011;2753;49.196;8.286;2023-03-01T12:32:35;20.80;;;10.90;;
5460;SDS011;2753;49.196;8.286;2023-03-01T12:34:55;21.87;;;13.30;;
5460;SDS011;2753;49.196;8.286;2023-03-01T12:40:21;24.00;;;13.93;;
5460;SDS011;2753;49.196;8.286;2023-03-01T12:45:27;23.47;;;14.37;;
5460;SDS011;2753;49.196;8.286;2023-03-01T12:51:08;28.27;;;16.47;;
5460;SDS011;2753;49.196;8.286;2023-03-01T12:53:42;32.53;;;15.07;;
5460;SDS011;2753;49.196;8.286;2023-03-01T12:56:12;28.27;;;15.47;;
5460;SDS011;2753;49.196;8.286;2023-03-01T12:58:46;25.37;;;15.07;;
5460;SDS011;2753;49.196;8.286;2023-03-01T13:10:10;23.73;;;15.40;;
5460;SDS011;2753;49.196;8.286;2023-03-01T13:16:19;27.30;;;16.10;;
5460;SDS011;2753;49.196;8.286;2023-03-01T13:18:47;23.43;;;15.13;;
5460;SDS011;2753;49.196;8.286;2023-03-01T13:21:13;28.43;;;14.33;;
5460;SDS011;2753;49.196;8.286;2023-03-01T13:23:55;25.27;;;16.63;;
5460;SDS011;2753;49.196;8.286;2023-03-01T13:26:20;25.33;;;14.93;;
5460;SDS011;2753;49.196;8.286;2023-03-01T13:33:54;26.63;;;16.83;;
5460;SDS011;2753;49.196;8.286;2023-03-01T13:46:44;26.57;;;15.40;;
5460;SDS011;2753;49.196;8.286;2023-03-01T13:49:11;26.73;;;14.70;;
5460;SDS011;2753;49.196;8.286;2023-03-01T13:51:41;25.13;;;15.40;;
5460;SDS011;2753;49.196;8.286;2023-03-01T13:54:11;27.00;;;16.60;;
5460;SDS011;2753;49.196;8.286;2023-03-01T13:56:39;25.13;;;14.57;;
5460;SDS011;2753;49.196;8.286;2023-03-01T13:59:06;22.30;;;14.63;;
5460;SDS011;2753;49.196;8.286;2023-03-01T14:01:42;28.70;;;15.60;;
5460;SDS011;2753;49.196;8.286;2023-03-01T14:04:20;36.83;;;15.10;;
5460;SDS011;2753;49.196;8.286;2023-03-01T14:06:48;22.80;;;13.67;;
5460;SDS011;2753;49.196;8.286;2023-03-01T14:09:23;28.47;;;15.33;;
5460;SDS011;2753;49.196;8.286;2023-03-01T14:12:00;31.23;;;15.30;;
5460;SDS011;2753;49.196;8.286;2023-03-01T14:15:13;26.27;;;15.70;;
5460;SDS011;2753;49.196;8.286;2023-03-01T14:23:08;22.57;;;13.53;;
5460;SDS011;2753;49.196;8.286;2023-03-01T14:25:38;20.77;;;12.73;;
5460;SDS011;2753;49.196;8.286;2023-03-01T14:28:16;23.83;;;14.70;;
5460;SDS011;2753;49.196;8.286;2023-03-01T14:30:50;20.23;;;12.50;;
5460;SDS011;2753;49.196;8.286;2023-03-01T14:35:53;22.30;;;13.40;;
5460;SDS011;2753;49.196;8.286;2023-03-01T14:38:23;22.90;;;13.37;;
5460;SDS011;2753;49.196;8.286;2023-03-01T14:40:55;24.77;;;13.67;;
5460;SDS011;2753;49.196;8.286;2023-03-01T14:43:24;22.23;;;12.43;;
5460;SDS011;2753;49.196;8.286;2023-03-01T14:45:51;24.63;;;11.90;;
5460;SDS011;2753;49.196;8.286;2023-03-01T14:48:17;16.60;;;10.03;;
5460;SDS011;2753;49.196;8.286;2023-03-01T14:50:44;19.07;;;11.37;;
5460;SDS011;2753;49.196;8.286;2023-03-01T14:53:21;19.40;;;12.90;;
5460;SDS011;2753;49.196;8.286;2023-03-01T14:55:56;24.90;;;12.83;;
5460;SDS011;2753;49.196;8.286;2023-03-01T14:58:27;21.33;;;13.60;;
5460;SDS011;2753;49.196;8.286;2023-03-01T15:00:54;22.97;;;13.97;;
5460;SDS011;2753;49.196;8.286;2023-03-01T15:03:27;25.17;;;13.57;;
5460;SDS011;2753;49.196;8.286;2023-03-01T15:05:59;21.83;;;12.13;;
5460;SDS011;2753;49.196;8.286;2023-03-01T15:08:27;20.43;;;11.80;;
5460;SDS011;2753;49.196;8.286;2023-03-01T15:11:05;26.63;;;12.97;;
5460;SDS011;2753;49.196;8.286;2023-03-01T15:14:38;27.63;;;13.00;;
5460;SDS011;2753;49.196;8.286;2023-03-01T15:17:28;21.10;;;12.60;;
5460;SDS011;2753;49.196;8.286;2023-03-01T15:20:28;19.93;;;12.47;;
5460;SDS011;2753;49.196;8.286;2023-03-01T15:23:00;18.13;;;11.63;;
5460;SDS011;2753;49.196;8.286;2023-03-01T15:25:27;18.63;;;12.10;;
5460;SDS011;2753;49.196;8.286;2023-03-01T15:27:55;22.07;;;11.67;;
5460;SDS011;2753;49.196;8.286;2023-03-01T15:30:23;15.73;;;10.63;;
5460;SDS011;2753;49.196;8.286;2023-03-01T15:35:52;19.40;;;12.87;;
5460;SDS011;2753;49.196;8.286;2023-03-01T15:40:57;18.13;;;12.30;;
5460;SDS011;2753;49.196;8.286;2023-03-01T15:43:44;20.67;;;11.93;;
5460;SDS011;2753;49.196;8.286;2023-03-01T15:46:18;20.20;;;11.93;;
5460;SDS011;2753;49.196;8.286;2023-03-01T15:48:48;20.30;;;11.30;;
5460;SDS011;2753;49.196;8.286;2023-03-01T15:51:18;24.27;;;11.10;;
5460;SDS011;2753;49.196;8.286;2023-03-01T15:53:52;23.10;;;13.37;;
5460;SDS011;2753;49.196;8.286;2023-03-01T15:56:18;22.30;;;12.30;;
5460;SDS011;2753;49.196;8.286;2023-03-01T15:58:44;21.13;;;13.43;;
5460;SDS011;2753;49.196;8.286;2023-03-01T16:01:13;20.70;;;11.53;;
5460;SDS011;2753;49.196;8.286;2023-03-01T16:03:41;23.27;;;14.90;;
5460;SDS011;2753;49.196;8.286;2023-03-01T16:06:08;28.77;;;12.90;;
5460;SDS011;2753;49.196;8.286;2023-03-01T16:08:35;19.40;;;10.57;;
5460;SDS011;2753;49.196;8.286;2023-03-01T16:11:02;20.17;;;11.03;;
5460;SDS011;2753;49.196;8.286;2023-03-01T16:13:30;23.70;;;12.80;;
5460;SDS011;2753;49.196;8.286;2023-03-01T16:15:57;18.20;;;10.97;;
5460;SDS011;2753;49.196;8.286;2023-03-01T16:18:23;20.30;;;11.80;;
5460;SDS011;2753;49.196;8.286;2023-03-01T16:20:49;21.90;;;12.77;;
5460;SDS011;2753;49.196;8.286;2023-03-01T16:23:15;25.97;;;12.10;;
5460;SDS011;2753;49.196;8.286;2023-03-01T16:25:40;25.40;;;13.10;;
5460;SDS011;2753;49.196;8.286;2023-03-01T16:28:06;27.23;;;12.40;;
5460;SDS011;2753;49.196;8.286;2023-03-01T16:30:36;26.43;;;15.10;;
5460;SDS011;2753;49.196;8.286;2023-03-01T16:33:03;25.60;;;15.10;;
5460;SDS011;2753;49.196;8.286;2023-03-01T16:35:31;22.73;;;12.17;;
5460;SDS011;2753;49.196;8.286;2023-03-01T16:37:57;23.80;;;11.97;;
5460;SDS011;2753;49.196;8.286;2023-03-01T16:40:28;27.77;;;13.70;;
5460;SDS011;2753;49.196;8.286;2023-03-01T16:42:55;20.63;;;12.03;;
5460;SDS011;2753;49.196;8.286;2023-03-01T16:45:26;19.17;;;11.70;;
5460;SDS011;2753;49.196;8.286;2023-03-01T16:47:53;20.07;;;12.07;;
5460;SDS011;2753;49.196;8.286;2023-03-01T16:50:19;26.90;;;13.27;;
5460;SDS011;2753;49.196;8.286;2023-03-01T16:52:45;39.43;;;21.43;;
5460;SDS011;2753;49.196;8.286;2023-03-01T16:55:10;30.37;;;15.30;;
5460;SDS011;2753;49.196;8.286;2023-03-01T16:57:37;22.83;;;14.23;;
5460;SDS011;2753;49.196;8.286;2023-03-01T17:00:06;26.47;;;15.57;;
5460;SDS011;2753;49.196;8.286;2023-03-01T17:02:37;24.93;;;13.60;;
5460;SDS011;2753;49.196;8.286;2023-03-01T17:05:04;25.40;;;13.60;;
5460;SDS011;2753;49.196;8.286;2023-03-01T17:07:31;23.20;;;15.50;;
5460;SDS011;2753;49.196;8.286;2023-03-01T17:10:01;27.97;;;16.30;;
5460;SDS011;2753;49.196;8.286;2023-03-01T17:12:28;25.97;;;16.07;;
5460;SDS011;2753;49.196;8.286;2023-03-01T17:14:54;26.13;;;15.80;;
5460;SDS011;2753;49.196;8.286;2023-03-01T17:17:20;30.00;;;16.13;;
5460;SDS011;2753;49.196;8.286;2023-03-01T17:19:45;29.77;;;16.80;;
5460;SDS011;2753;49.196;8.286;2023-03-01T17:22:11;22.30;;;13.90;;
5460;SDS011;2753;49.196;8.286;2023-03-01T17:24:38;28.63;;;15.00;;